createdAt,value
2018-12-02T00:00:03.724Z,4.78
2018-12-02T00:01:03.711Z,4.78
2018-12-02T00:02:03.695Z,4.77
2018-12-02T00:03:03.680Z,4.78
2018-12-02T00:04:03.668Z,4.77
2018-12-02T00:05:03.651Z,4.82
2018-12-02T00:06:03.638Z,4.8
2018-12-02T00:07:03.379Z,4.8
2018-12-02T00:08:03.611Z,4.78
2018-12-02T00:09:03.602Z,4.8
2018-12-02T00:10:03.578Z,4.84
2018-12-02T00:11:03.569Z,4.77
2018-12-02T00:12:03.561Z,4.89
2018-12-02T00:13:03.538Z,4.89
2018-12-02T00:14:03.527Z,4.84
2018-12-02T00:15:03.511Z,4.89
2018-12-02T00:16:03.496Z,4.92
2018-12-02T00:17:03.488Z,4.89
2018-12-02T00:18:03.469Z,4.84
2018-12-02T00:19:03.455Z,4.82
2018-12-02T00:20:03.457Z,4.78
2018-12-02T00:21:03.427Z,4.8
2018-12-02T00:22:03.412Z,4.82
2018-12-02T00:23:03.400Z,4.85
2018-12-02T00:24:03.389Z,4.85
2018-12-02T00:25:03.370Z,4.82
2018-12-02T00:26:03.358Z,4.91
2018-12-02T00:27:03.340Z,4.84
2018-12-02T00:28:03.334Z,4.91
2018-12-02T00:29:03.322Z,4.77
2018-12-02T00:30:03.304Z,4.82
2018-12-02T00:31:03.286Z,4.88
2018-12-02T00:32:03.273Z,4.86
2018-12-02T00:33:03.261Z,4.91
2018-12-02T00:34:03.245Z,4.84
2018-12-02T00:35:03.234Z,4.94
2018-12-02T00:36:03.215Z,4.88
2018-12-02T00:37:03.203Z,4.92
2018-12-02T00:38:03.190Z,4.86
2018-12-02T00:39:02.946Z,4.91
2018-12-02T00:40:03.194Z,4.91
2018-12-02T00:41:03.144Z,4.89
2018-12-02T00:42:03.138Z,4.89
2018-12-02T00:43:03.120Z,4.91
2018-12-02T00:44:04.400Z,4.92
2018-12-02T00:45:03.089Z,4.92
2018-12-02T00:46:03.077Z,4.92
2018-12-02T00:47:03.063Z,4.99
2018-12-02T00:48:03.053Z,4.97
2018-12-02T00:49:03.033Z,4.91
2018-12-02T00:50:03.020Z,4.91
2018-12-02T00:51:03.009Z,4.92
2018-12-02T00:52:03.006Z,4.92
2018-12-02T00:53:02.992Z,4.91
2018-12-02T00:54:02.967Z,4.88
2018-12-02T00:55:02.952Z,4.92
2018-12-02T00:56:02.939Z,4.84
2018-12-02T00:57:02.925Z,4.85
2018-12-02T00:58:02.934Z,4.77
2018-12-02T00:59:02.895Z,4.75
2018-12-02T01:00:02.878Z,4.73
2018-12-02T01:01:02.866Z,4.75
2018-12-02T01:02:02.853Z,4.67
2018-12-02T01:03:02.847Z,4.67
2018-12-02T01:04:02.830Z,4.7
2018-12-02T01:05:02.811Z,4.7
2018-12-02T01:06:02.794Z,4.67
2018-12-02T01:07:02.783Z,4.86
2018-12-02T01:08:02.768Z,4.67
2018-12-02T01:09:02.759Z,4.7
2018-12-02T01:10:02.740Z,4.7
2018-12-02T01:11:02.734Z,4.66
2018-12-02T01:12:02.713Z,4.77
2018-12-02T01:13:02.704Z,4.63
2018-12-02T01:14:02.687Z,4.77
2018-12-02T01:15:02.669Z,4.8
2018-12-02T01:16:02.414Z,4.75
2018-12-02T01:17:02.397Z,4.69
2018-12-02T01:18:02.634Z,4.77
2018-12-02T01:19:02.615Z,4.78
2018-12-02T01:20:02.609Z,4.69
2018-12-02T01:21:02.584Z,4.8
2018-12-02T01:22:02.568Z,4.75
2018-12-02T01:23:02.556Z,4.77
2018-12-02T01:24:02.544Z,4.82
2018-12-02T01:25:02.528Z,4.86
2018-12-02T01:26:02.519Z,4.85
2018-12-02T01:27:02.507Z,4.73
2018-12-02T01:28:02.485Z,4.82
2018-12-02T01:29:02.469Z,4.82
2018-12-02T01:30:02.457Z,4.84
2018-12-02T01:31:02.443Z,4.91
2018-12-02T01:32:02.429Z,4.88
2018-12-02T01:33:02.415Z,4.85
2018-12-02T01:34:02.398Z,4.85
2018-12-02T01:35:02.394Z,4.91
2018-12-02T01:36:02.376Z,4.88
2018-12-02T01:37:02.357Z,4.92
2018-12-02T01:38:02.347Z,4.88
2018-12-02T01:39:02.336Z,4.92
2018-12-02T01:40:02.316Z,4.89
2018-12-02T01:41:02.302Z,4.89
2018-12-02T01:42:02.295Z,4.91
2018-12-02T01:43:02.276Z,4.92
2018-12-02T01:44:02.259Z,4.92
2018-12-02T01:45:02.249Z,4.89
2018-12-02T01:46:02.230Z,4.94
2018-12-02T01:47:02.217Z,4.91
2018-12-02T01:48:02.203Z,4.91
2018-12-02T01:49:02.186Z,4.89
2018-12-02T01:50:02.175Z,4.88
2018-12-02T01:51:02.160Z,4.84
2018-12-02T01:52:02.147Z,4.86
2018-12-02T01:53:02.131Z,4.85
2018-12-02T01:54:02.117Z,4.89
2018-12-02T01:55:02.105Z,4.89
2018-12-02T01:56:02.090Z,4.96
2018-12-02T01:57:02.078Z,4.94
2018-12-02T01:58:02.061Z,4.92
2018-12-02T01:59:02.053Z,4.91
2018-12-02T02:00:02.040Z,4.88
2018-12-02T02:01:02.020Z,4.92
2018-12-02T02:02:02.005Z,4.92
2018-12-02T02:03:01.750Z,4.96
2018-12-02T02:04:01.979Z,4.89
2018-12-02T02:05:01.963Z,4.89
2018-12-02T02:06:01.952Z,4.82
2018-12-02T02:07:01.939Z,4.92
2018-12-02T02:08:01.923Z,4.8
2018-12-02T02:09:01.912Z,4.77
2018-12-02T02:10:01.894Z,4.91
2018-12-02T02:11:01.879Z,4.75
2018-12-02T02:12:01.868Z,4.89
2018-12-02T02:13:01.850Z,4.84
2018-12-02T02:14:01.842Z,4.91
2018-12-02T02:15:01.825Z,4.92
2018-12-02T02:16:01.811Z,4.92
2018-12-02T02:17:01.794Z,4.85
2018-12-02T02:18:01.787Z,4.88
2018-12-02T02:19:01.768Z,4.89
2018-12-02T02:20:01.767Z,4.77
2018-12-02T02:21:01.744Z,4.84
2018-12-02T02:22:01.726Z,4.86
2018-12-02T02:23:01.713Z,4.86
2018-12-02T02:24:01.703Z,4.86
2018-12-02T02:25:01.684Z,4.88
2018-12-02T02:26:01.678Z,4.89
2018-12-02T02:27:01.712Z,4.86
2018-12-02T02:28:01.638Z,4.85
2018-12-02T02:29:01.396Z,4.92
2018-12-02T02:30:01.616Z,4.89
2018-12-02T02:31:01.600Z,4.92
2018-12-02T02:32:01.587Z,4.92
2018-12-02T02:33:01.575Z,4.94
2018-12-02T02:34:01.557Z,4.94
2018-12-02T02:35:01.545Z,4.91
2018-12-02T02:36:01.530Z,4.99
2018-12-02T02:37:01.521Z,4.97
2018-12-02T02:38:01.507Z,5.02
2018-12-02T02:39:01.488Z,5.02
2018-12-02T02:40:01.477Z,5.06
2018-12-02T02:41:01.463Z,5.09
2018-12-02T02:42:01.444Z,5.12
2018-12-02T02:43:01.430Z,5.15
2018-12-02T02:44:01.424Z,5.2
2018-12-02T02:45:01.420Z,5.1
2018-12-02T02:46:01.698Z,5.12
2018-12-02T02:47:01.422Z,5.27
2018-12-02T02:48:01.376Z,5.22
2018-12-02T02:49:01.353Z,5.25
2018-12-02T02:50:01.333Z,5.25
2018-12-02T02:51:01.332Z,5.2
2018-12-02T02:52:01.318Z,5.27
2018-12-02T02:53:01.296Z,5.33
2018-12-02T02:54:01.038Z,5.27
2018-12-02T02:55:01.267Z,5.28
2018-12-02T02:56:01.251Z,5.38
2018-12-02T02:57:01.239Z,5.3
2018-12-02T02:58:01.237Z,5.35
2018-12-02T02:59:01.217Z,5.39
2018-12-02T03:00:01.204Z,5.42
2018-12-02T03:01:01.182Z,5.4
2018-12-02T03:02:01.167Z,5.49
2018-12-02T03:03:01.220Z,5.45
2018-12-02T03:04:01.140Z,5.61
2018-12-02T03:05:01.138Z,5.56
2018-12-02T03:06:01.118Z,5.58
2018-12-02T03:07:01.100Z,5.6
2018-12-02T03:08:01.091Z,5.54
2018-12-02T03:09:01.072Z,5.68
2018-12-02T03:10:01.063Z,5.67
2018-12-02T03:11:01.046Z,5.72
2018-12-02T03:12:01.041Z,5.67
2018-12-02T03:13:01.017Z,5.74
2018-12-02T03:14:01.001Z,5.74
2018-12-02T03:15:00.993Z,5.75
2018-12-02T03:16:00.979Z,5.78
2018-12-02T03:17:00.963Z,5.74
2018-12-02T03:18:00.956Z,5.75
2018-12-02T03:19:00.986Z,5.79
2018-12-02T03:20:00.919Z,5.75
2018-12-02T03:21:00.915Z,5.67
2018-12-02T03:22:00.892Z,5.68
2018-12-02T03:23:00.980Z,5.67
2018-12-02T03:24:00.865Z,5.64
2018-12-02T03:25:00.853Z,5.67
2018-12-02T03:26:00.855Z,5.67
2018-12-02T03:27:00.829Z,5.75
2018-12-02T03:28:00.573Z,5.72
2018-12-02T03:29:00.822Z,5.71
2018-12-02T03:30:00.787Z,5.78
2018-12-02T03:31:00.839Z,5.74
2018-12-02T03:32:00.769Z,5.75
2018-12-02T03:33:00.758Z,5.83
2018-12-02T03:34:00.731Z,5.79
2018-12-02T03:35:00.728Z,5.86
2018-12-02T03:36:00.708Z,5.82
2018-12-02T03:37:00.697Z,5.89
2018-12-02T03:38:00.440Z,5.86
2018-12-02T03:39:00.678Z,5.91
2018-12-02T03:40:00.650Z,5.93
2018-12-02T03:41:00.632Z,5.91
2018-12-02T03:42:00.625Z,5.99
2018-12-02T03:43:00.625Z,5.99
2018-12-02T03:44:00.596Z,6.09
2018-12-02T03:45:00.585Z,6.06
2018-12-02T03:46:00.573Z,6.11
2018-12-02T03:47:00.568Z,6.12
2018-12-02T03:48:00.545Z,6.03
2018-12-02T03:49:00.530Z,6.14
2018-12-02T03:50:00.518Z,6.18
2018-12-02T03:51:00.513Z,6.17
2018-12-02T03:52:00.496Z,6.17
2018-12-02T03:53:00.480Z,6.21
2018-12-02T03:54:00.468Z,6.22
2018-12-02T03:55:00.451Z,6.27
2018-12-02T03:56:00.439Z,6.3
2018-12-02T03:57:00.427Z,6.31
2018-12-02T03:58:00.412Z,6.38
2018-12-02T03:59:00.401Z,6.36
2018-12-02T04:00:00.388Z,6.37
2018-12-02T04:01:00.384Z,6.34
2018-12-02T04:02:00.361Z,6.36
2018-12-02T04:03:00.114Z,6.31
2018-12-02T04:04:00.335Z,6.37
2018-12-02T04:05:00.321Z,6.41
2018-12-02T04:06:00.314Z,6.49
2018-12-02T04:07:00.299Z,6.44
2018-12-02T04:08:00.298Z,6.44
2018-12-02T04:09:00.270Z,6.55
2018-12-02T04:10:00.259Z,6.54
2018-12-02T04:11:00.246Z,6.54
2018-12-02T04:12:00.244Z,6.49
2018-12-02T04:13:00.218Z,6.46
2018-12-02T04:14:00.219Z,6.51
2018-12-02T04:15:00.199Z,6.51
2018-12-02T04:16:00.188Z,6.64
2018-12-02T04:17:00.217Z,6.59
2018-12-02T04:18:00.177Z,6.56
2018-12-02T04:19:00.140Z,6.59
2018-12-02T04:20:00.127Z,6.64
2018-12-02T04:21:00.112Z,6.64
2018-12-02T04:22:00.103Z,6.62
2018-12-02T04:23:00.104Z,6.61
2018-12-02T04:24:00.082Z,6.66
2018-12-02T04:25:00.062Z,6.61
2018-12-02T04:26:00.064Z,6.64
2018-12-02T04:27:00.041Z,6.71
2018-12-02T04:28:00.025Z,6.64
2018-12-02T04:29:00.009Z,6.61
2018-12-02T04:30:00.006Z,6.7
2018-12-02T04:30:59.986Z,6.7
2018-12-02T04:31:59.984Z,6.61
2018-12-02T04:32:59.961Z,6.67
2018-12-02T04:33:59.953Z,6.66
2018-12-02T04:34:59.934Z,6.74
2018-12-02T04:35:59.924Z,6.69
2018-12-02T04:36:59.911Z,6.67
2018-12-02T04:37:59.902Z,6.69
2018-12-02T04:38:59.887Z,6.67
2018-12-02T04:39:59.873Z,6.71
2018-12-02T04:40:59.858Z,6.69
2018-12-02T04:41:59.848Z,6.74
2018-12-02T04:42:59.845Z,6.64
2018-12-02T04:43:59.819Z,6.7
2018-12-02T04:44:59.823Z,6.8
2018-12-02T04:45:59.798Z,6.77
2018-12-02T04:46:59.785Z,6.84
2018-12-02T04:47:59.768Z,6.8
2018-12-02T04:48:59.758Z,6.91
2018-12-02T04:49:59.745Z,6.81
2018-12-02T04:50:59.733Z,6.91
2018-12-02T04:51:59.720Z,6.87
2018-12-02T04:52:59.716Z,6.85
2018-12-02T04:53:59.692Z,6.89
2018-12-02T04:54:59.682Z,6.88
2018-12-02T04:55:59.670Z,6.88
2018-12-02T04:56:59.660Z,6.79
2018-12-02T04:57:59.648Z,6.8
2018-12-02T04:58:59.635Z,6.88
2018-12-02T04:59:59.625Z,6.81
2018-12-02T05:00:59.613Z,6.84
2018-12-02T05:01:59.591Z,6.8
2018-12-02T05:02:59.577Z,6.8
2018-12-02T05:03:59.566Z,6.77
2018-12-02T05:04:59.554Z,6.8
2018-12-02T05:05:59.540Z,6.71
2018-12-02T05:06:59.528Z,6.74
2018-12-02T05:07:59.519Z,6.81
2018-12-02T05:08:59.503Z,6.81
2018-12-02T05:09:59.490Z,6.81
2018-12-02T05:10:59.479Z,6.87
2018-12-02T05:11:59.464Z,6.79
2018-12-02T05:12:59.458Z,6.8
2018-12-02T05:13:59.438Z,6.8
2018-12-02T05:14:59.428Z,6.8
2018-12-02T05:15:59.415Z,6.88
2018-12-02T05:16:59.403Z,6.84
2018-12-02T05:17:59.387Z,6.8
2018-12-02T05:18:59.389Z,6.87
2018-12-02T05:19:59.365Z,6.81
2018-12-02T05:20:59.352Z,6.81
2018-12-02T05:21:59.341Z,6.84
2018-12-02T05:22:59.342Z,6.81
2018-12-02T05:23:59.324Z,6.84
2018-12-02T05:24:59.302Z,6.87
2018-12-02T05:25:59.289Z,6.87
2018-12-02T05:26:59.274Z,6.84
2018-12-02T05:27:59.267Z,6.8
2018-12-02T05:28:59.259Z,6.88
2018-12-02T05:29:59.236Z,6.8
2018-12-02T05:30:59.235Z,6.85
2018-12-02T05:31:59.212Z,6.84
2018-12-02T05:32:59.198Z,6.79
2018-12-02T05:33:59.193Z,6.81
2018-12-02T05:34:59.182Z,6.84
2018-12-02T05:35:59.160Z,6.84
2018-12-02T05:36:59.148Z,6.84
2018-12-02T05:37:59.133Z,6.76
2018-12-02T05:38:59.122Z,6.76
2018-12-02T05:39:59.107Z,6.85
2018-12-02T05:40:59.143Z,6.74
2018-12-02T05:41:59.083Z,6.79
2018-12-02T05:42:59.069Z,6.79
2018-12-02T05:43:59.062Z,6.76
2018-12-02T05:44:59.044Z,6.8
2018-12-02T05:45:59.033Z,6.81
2018-12-02T05:46:59.017Z,6.79
2018-12-02T05:47:59.013Z,6.87
2018-12-02T05:48:58.999Z,6.79
2018-12-02T05:49:58.981Z,6.8
2018-12-02T05:50:58.970Z,6.84
2018-12-02T05:51:58.964Z,6.77
2018-12-02T05:52:58.951Z,6.87
2018-12-02T05:53:58.936Z,6.85
2018-12-02T05:54:58.917Z,6.89
2018-12-02T05:55:58.906Z,6.88
2018-12-02T05:56:58.894Z,6.84
2018-12-02T05:57:58.881Z,6.84
2018-12-02T05:58:58.869Z,6.85
2018-12-02T05:59:58.857Z,6.91
2018-12-02T06:00:58.842Z,6.81
2018-12-02T06:01:58.831Z,7.03
2018-12-02T06:02:58.819Z,6.91
2018-12-02T06:03:58.808Z,6.94
2018-12-02T06:04:58.801Z,6.94
2018-12-02T06:05:58.780Z,6.99
2018-12-02T06:06:58.766Z,6.98
2018-12-02T06:07:58.753Z,6.98
2018-12-02T06:08:58.740Z,6.95
2018-12-02T06:09:58.727Z,6.97
2018-12-02T06:10:58.719Z,6.97
2018-12-02T06:11:58.703Z,6.95
2018-12-02T06:12:58.695Z,6.92
2018-12-02T06:13:58.678Z,6.98
2018-12-02T06:14:58.664Z,6.95
2018-12-02T06:15:58.650Z,6.92
2018-12-02T06:16:58.639Z,7.03
2018-12-02T06:17:58.626Z,6.98
2018-12-02T06:18:58.617Z,7.07
2018-12-02T06:20:04.501Z,7.12
2018-12-02T06:20:59.391Z,7.13
2018-12-02T06:21:58.578Z,7.06
2018-12-02T06:22:58.569Z,7.07
2018-12-02T06:23:58.553Z,7.21
2018-12-02T06:24:58.539Z,7.03
2018-12-02T06:25:58.534Z,7.1
2018-12-02T06:26:58.515Z,7.03
2018-12-02T06:27:58.505Z,6.97
2018-12-02T06:28:58.487Z,6.97
2018-12-02T06:29:58.476Z,7.13
2018-12-02T06:30:58.468Z,7.1
2018-12-02T06:31:58.453Z,7.12
2018-12-02T06:32:58.446Z,7.09
2018-12-02T06:33:58.428Z,7.09
2018-12-02T06:34:58.418Z,7.1
2018-12-02T06:35:58.402Z,6.97
2018-12-02T06:36:58.394Z,7.06
2018-12-02T06:37:58.388Z,7.05
2018-12-02T06:38:58.370Z,7.09
2018-12-02T06:39:58.368Z,7.15
2018-12-02T06:40:58.354Z,7.15
2018-12-02T06:41:58.327Z,7.1
2018-12-02T06:42:58.323Z,7.13
2018-12-02T06:43:58.302Z,7.16
2018-12-02T06:44:58.339Z,7.16
2018-12-02T06:45:58.277Z,7.15
2018-12-02T06:46:58.264Z,7.15
2018-12-02T06:47:58.251Z,7.07
2018-12-02T06:48:58.237Z,7.15
2018-12-02T06:49:58.228Z,7.2
2018-12-02T06:50:58.220Z,7.1
2018-12-02T06:51:58.205Z,7.2
2018-12-02T06:52:58.189Z,7.15
2018-12-02T06:53:58.179Z,7.21
2018-12-02T06:54:58.162Z,7.15
2018-12-02T06:55:58.153Z,7.23
2018-12-02T06:56:58.140Z,7.24
2018-12-02T06:57:58.133Z,7.24
2018-12-02T06:58:58.116Z,7.32
2018-12-02T06:59:58.101Z,7.28
2018-12-02T07:00:58.092Z,7.28
2018-12-02T07:01:58.079Z,7.3
2018-12-02T07:02:58.065Z,7.31
2018-12-02T07:03:58.058Z,7.34
2018-12-02T07:04:58.046Z,7.31
2018-12-02T07:05:58.032Z,7.34
2018-12-02T07:06:58.017Z,7.3
2018-12-02T07:07:58.004Z,7.31
2018-12-02T07:08:57.996Z,7.25
2018-12-02T07:09:57.982Z,7.28
2018-12-02T07:10:57.968Z,7.27
2018-12-02T07:11:57.958Z,7.28
2018-12-02T07:12:57.942Z,7.35
2018-12-02T07:13:57.934Z,7.37
2018-12-02T07:14:57.916Z,7.39
2018-12-02T07:15:57.908Z,7.43
2018-12-02T07:16:57.891Z,7.39
2018-12-02T07:17:57.881Z,7.4
2018-12-02T07:18:57.872Z,7.39
2018-12-02T07:19:57.862Z,7.32
2018-12-02T07:20:57.842Z,7.35
2018-12-02T07:21:57.834Z,7.39
2018-12-02T07:22:57.819Z,7.39
2018-12-02T07:23:57.807Z,7.39
2018-12-02T07:24:57.796Z,7.25
2018-12-02T07:25:57.784Z,7.3
2018-12-02T07:26:57.771Z,7.3
2018-12-02T07:27:57.761Z,7.31
2018-12-02T07:28:57.749Z,7.39
2018-12-02T07:29:57.736Z,7.34
2018-12-02T07:30:57.729Z,7.35
2018-12-02T07:31:57.710Z,7.31
2018-12-02T07:32:57.698Z,7.28
2018-12-02T07:33:57.688Z,7.31
2018-12-02T07:34:57.671Z,7.27
2018-12-02T07:35:57.667Z,7.24
2018-12-02T07:36:57.650Z,7.27
2018-12-02T07:37:57.639Z,7.32
2018-12-02T07:38:57.624Z,7.32
2018-12-02T07:39:57.612Z,7.23
2018-12-02T07:40:57.606Z,7.27
2018-12-02T07:41:57.587Z,7.23
2018-12-02T07:42:57.577Z,7.34
2018-12-02T07:43:57.564Z,7.28
2018-12-02T07:44:57.551Z,7.31
2018-12-02T07:45:57.544Z,7.28
2018-12-02T07:46:57.528Z,7.39
2018-12-02T07:47:57.512Z,7.4
2018-12-02T07:48:57.503Z,7.37
2018-12-02T07:49:57.491Z,7.43
2018-12-02T07:50:57.485Z,7.39
2018-12-02T07:51:57.470Z,7.43
2018-12-02T07:52:57.458Z,7.42
2018-12-02T07:53:57.441Z,7.46
2018-12-02T07:54:57.429Z,7.46
2018-12-02T07:55:57.422Z,7.5
2018-12-02T07:56:57.409Z,7.46
2018-12-02T07:57:57.394Z,7.39
2018-12-02T07:58:57.390Z,7.43
2018-12-02T07:59:57.367Z,7.49
2018-12-02T08:00:57.356Z,7.49
2018-12-02T08:01:57.347Z,7.35
2018-12-02T08:02:57.332Z,7.46
2018-12-02T08:03:57.320Z,7.43
2018-12-02T08:04:57.308Z,7.5
2018-12-02T08:05:57.295Z,7.42
2018-12-02T08:06:57.282Z,7.42
2018-12-02T08:07:57.285Z,7.42
2018-12-02T08:08:57.263Z,7.48
2018-12-02T08:09:57.247Z,7.4
2018-12-02T08:10:57.243Z,7.39
2018-12-02T08:11:57.231Z,7.42
2018-12-02T08:12:57.214Z,7.45
2018-12-02T08:13:57.198Z,7.39
2018-12-02T08:14:57.187Z,7.42
2018-12-02T08:15:57.172Z,7.4
2018-12-02T08:16:57.162Z,7.4
2018-12-02T08:17:57.153Z,7.25
2018-12-02T08:18:56.897Z,7.3
2018-12-02T08:19:57.130Z,7.28
2018-12-02T08:20:57.117Z,7.31
2018-12-02T08:21:57.107Z,7.24
2018-12-02T08:22:57.088Z,7.28
2018-12-02T08:23:57.079Z,7.3
2018-12-02T08:24:57.070Z,7.3
2018-12-02T08:25:57.053Z,7.28
2018-12-02T08:26:57.040Z,7.28
2018-12-02T08:27:57.027Z,7.32
2018-12-02T08:28:57.015Z,7.31
2018-12-02T08:29:57.003Z,7.3
2018-12-02T08:30:56.989Z,7.31
2018-12-02T08:31:56.977Z,7.37
2018-12-02T08:32:56.975Z,7.28
2018-12-02T08:33:56.955Z,7.43
2018-12-02T08:34:56.943Z,7.37
2018-12-02T08:35:56.932Z,7.42
2018-12-02T08:36:56.916Z,7.43
2018-12-02T08:37:56.907Z,7.58
2018-12-02T08:38:56.898Z,7.46
2018-12-02T08:39:56.882Z,7.53
2018-12-02T08:40:56.871Z,7.6
2018-12-02T08:41:56.863Z,7.52
2018-12-02T08:42:56.848Z,7.49
2018-12-02T08:43:56.836Z,7.57
2018-12-02T08:44:56.825Z,7.55
2018-12-02T08:45:56.811Z,7.6
2018-12-02T08:46:56.802Z,7.69
2018-12-02T08:47:56.790Z,7.72
2018-12-02T08:48:57.982Z,7.83
2018-12-02T08:49:56.768Z,7.83
2018-12-02T08:50:56.754Z,7.82
2018-12-02T08:51:56.752Z,7.9
2018-12-02T08:52:56.737Z,7.86
2018-12-02T08:53:56.719Z,7.97
2018-12-02T08:54:56.709Z,8
2018-12-02T08:55:56.694Z,8.02
2018-12-02T08:56:56.685Z,8.04
2018-12-02T08:57:56.671Z,8.01
2018-12-02T08:58:56.665Z,8.18
2018-12-02T08:59:56.653Z,8.04
2018-12-02T09:00:56.645Z,8.15
2018-12-02T09:01:56.626Z,8.25
2018-12-02T09:02:56.611Z,8.33
2018-12-02T09:03:56.602Z,8.29
2018-12-02T09:04:56.590Z,8.36
2018-12-02T09:05:56.579Z,8.37
2018-12-02T09:06:56.568Z,8.41
2018-12-02T09:07:56.555Z,8.53
2018-12-02T09:08:56.545Z,8.45
2018-12-02T09:10:04.309Z,8.59
2018-12-02T09:10:56.520Z,8.61
2018-12-02T09:11:56.510Z,8.63
2018-12-02T09:12:56.500Z,8.56
2018-12-02T09:13:56.488Z,8.63
2018-12-02T09:14:56.475Z,8.74
2018-12-02T09:15:56.467Z,8.66
2018-12-02T09:16:56.453Z,8.65
2018-12-02T09:17:56.443Z,8.74
2018-12-02T09:18:56.435Z,8.8
2018-12-02T09:19:56.424Z,8.77
2018-12-02T09:20:56.418Z,8.84
2018-12-02T09:21:56.400Z,8.91
2018-12-02T09:22:56.398Z,8.84
2018-12-02T09:23:56.378Z,8.84
2018-12-02T09:24:56.369Z,8.95
2018-12-02T09:25:57.100Z,8.94
2018-12-02T09:26:56.345Z,8.95
2018-12-02T09:27:56.335Z,8.98
2018-12-02T09:28:56.323Z,9.05
2018-12-02T09:29:56.316Z,9.02
2018-12-02T09:30:56.304Z,9.05
2018-12-02T09:31:56.295Z,9.17
2018-12-02T09:32:56.281Z,9.04
2018-12-02T09:33:56.275Z,9.1
2018-12-02T09:34:56.260Z,9.18
2018-12-02T09:35:56.250Z,9.18
2018-12-02T09:37:00.546Z,9.21
2018-12-02T09:37:55.989Z,9.24
2018-12-02T09:38:56.221Z,9.15
2018-12-02T09:39:56.215Z,9.29
2018-12-02T09:40:56.210Z,9.26
2018-12-02T09:41:56.186Z,9.21
2018-12-02T09:42:56.173Z,9.28
2018-12-02T09:43:56.167Z,9.21
2018-12-02T09:44:56.155Z,9.17
2018-12-02T09:45:56.144Z,9.2
2018-12-02T09:46:56.134Z,9.17
2018-12-02T09:47:56.121Z,9.28
2018-12-02T09:48:56.117Z,9.33
2018-12-02T09:49:56.101Z,9.35
2018-12-02T09:50:56.090Z,9.33
2018-12-02T09:51:56.081Z,9.32
2018-12-02T09:52:56.071Z,9.33
2018-12-02T09:53:56.060Z,9.29
2018-12-02T09:54:56.051Z,9.29
2018-12-02T09:55:56.044Z,9.31
2018-12-02T09:56:56.030Z,9.38
2018-12-02T09:57:56.037Z,9.36
2018-12-02T09:58:56.007Z,9.4
2018-12-02T09:59:55.754Z,9.46
2018-12-02T10:00:55.988Z,9.43
2018-12-02T10:01:55.977Z,9.36
2018-12-02T10:02:55.971Z,9.46
2018-12-02T10:03:55.954Z,9.43
2018-12-02T10:04:55.997Z,9.4
2018-12-02T10:05:55.985Z,9.4
2018-12-02T10:06:55.934Z,9.43
2018-12-02T10:07:55.913Z,9.48
2018-12-02T10:08:55.909Z,9.38
2018-12-02T10:09:56.174Z,9.38
2018-12-02T10:10:55.885Z,9.39
2018-12-02T10:11:55.872Z,9.42
2018-12-02T10:12:55.864Z,9.46
2018-12-02T10:13:55.852Z,9.43
2018-12-02T10:14:55.844Z,9.36
2018-12-02T10:15:55.831Z,9.33
2018-12-02T10:16:55.822Z,9.39
2018-12-02T10:17:55.811Z,9.32
2018-12-02T10:18:55.800Z,9.28
2018-12-02T10:19:55.790Z,9.32
2018-12-02T10:20:55.779Z,9.33
2018-12-02T10:21:55.768Z,9.32
2018-12-02T10:22:55.763Z,9.35
2018-12-02T10:23:55.748Z,9.33
2018-12-02T10:24:55.740Z,9.46
2018-12-02T10:25:55.728Z,9.43
2018-12-02T10:26:55.722Z,9.36
2018-12-02T10:27:55.709Z,9.4
2018-12-02T10:28:55.694Z,9.43
2018-12-02T10:29:55.685Z,9.4
2018-12-02T10:30:55.672Z,9.29
2018-12-02T10:31:55.663Z,9.33
2018-12-02T10:32:55.658Z,9.36
2018-12-02T10:33:55.643Z,9.4
2018-12-02T10:34:55.633Z,9.46
2018-12-02T10:35:55.622Z,9.46
2018-12-02T10:36:55.611Z,9.38
2018-12-02T10:37:55.600Z,9.47
2018-12-02T10:38:55.592Z,9.42
2018-12-02T10:39:55.582Z,9.5
2018-12-02T10:40:55.569Z,9.47
2018-12-02T10:41:55.559Z,9.47
2018-12-02T10:42:55.550Z,9.51
2018-12-02T10:43:55.545Z,9.51
2018-12-02T10:44:55.530Z,9.51
2018-12-02T10:45:55.521Z,9.48
2018-12-02T10:46:55.510Z,9.48
2018-12-02T10:47:55.499Z,9.5
2018-12-02T10:48:55.490Z,9.53
2018-12-02T10:49:55.476Z,9.46
2018-12-02T10:50:55.473Z,9.53
2018-12-02T10:51:55.460Z,9.58
2018-12-02T10:52:55.444Z,9.58
2018-12-02T10:53:55.436Z,9.64
2018-12-02T10:54:55.427Z,9.68
2018-12-02T10:55:55.416Z,9.72
2018-12-02T10:56:55.404Z,9.75
2018-12-02T10:57:55.157Z,9.75
2018-12-02T10:58:55.384Z,9.69
2018-12-02T10:59:55.382Z,9.81
2018-12-02T11:00:55.371Z,9.76
2018-12-02T11:01:55.354Z,9.81
2018-12-02T11:02:55.353Z,9.75
2018-12-02T11:03:55.334Z,9.76
2018-12-02T11:04:55.323Z,9.76
2018-12-02T11:05:55.315Z,9.81
2018-12-02T11:06:55.304Z,9.76
2018-12-02T11:07:55.297Z,9.76
2018-12-02T11:08:55.293Z,9.86
2018-12-02T11:09:55.271Z,9.79
2018-12-02T11:10:55.263Z,9.83
2018-12-02T11:11:55.257Z,9.86
2018-12-02T11:12:55.249Z,9.76
2018-12-02T11:13:55.235Z,9.84
2018-12-02T11:14:55.222Z,9.76
2018-12-02T11:15:55.212Z,9.81
2018-12-02T11:16:55.209Z,9.72
2018-12-02T11:17:55.190Z,9.75
2018-12-02T11:18:55.187Z,9.76
2018-12-02T11:19:54.937Z,9.69
2018-12-02T11:20:55.159Z,9.69
2018-12-02T11:21:55.153Z,9.71
2018-12-02T11:22:55.141Z,9.69
2018-12-02T11:23:55.130Z,9.68
2018-12-02T11:24:55.124Z,9.65
2018-12-02T11:25:55.112Z,9.69
2018-12-02T11:26:55.103Z,9.69
2018-12-02T11:27:55.094Z,9.65
2018-12-02T11:28:55.095Z,9.65
2018-12-02T11:29:55.074Z,9.72
2018-12-02T11:30:55.065Z,9.74
2018-12-02T11:31:55.055Z,9.68
2018-12-02T11:32:55.046Z,9.78
2018-12-02T11:33:55.033Z,9.93
2018-12-02T11:34:55.046Z,9.94
2018-12-02T11:35:54.772Z,9.97
2018-12-02T11:36:55.007Z,10.07
2018-12-02T11:37:54.998Z,9.97
2018-12-02T11:38:54.985Z,9.96
2018-12-02T11:39:54.973Z,10.05
2018-12-02T11:40:54.966Z,10.08
2018-12-02T11:41:54.956Z,10.09
2018-12-02T11:42:54.945Z,10.15
2018-12-02T11:43:54.983Z,10.22
2018-12-02T11:44:54.929Z,10.18
2018-12-02T11:45:54.918Z,10.18
2018-12-02T11:46:54.904Z,10.11
2018-12-02T11:47:54.899Z,10.09
2018-12-02T11:48:54.890Z,10.09
2018-12-02T11:49:54.878Z,10.08
2018-12-02T11:50:55.553Z,10.07
2018-12-02T11:51:54.859Z,10.07
2018-12-02T11:52:54.873Z,10.07
2018-12-02T11:53:54.844Z,10.11
2018-12-02T11:54:54.830Z,10.07
2018-12-02T11:55:54.831Z,10.15
2018-12-02T11:56:54.818Z,10.2
2018-12-02T11:57:54.805Z,10.22
2018-12-02T11:58:54.792Z,10.18
2018-12-02T11:59:54.782Z,10.22
2018-12-02T12:00:54.775Z,10.22
2018-12-02T12:01:54.762Z,10.14
2018-12-02T12:02:54.786Z,10.2
2018-12-02T12:03:54.746Z,10.23
2018-12-02T12:04:54.734Z,10.2
2018-12-02T12:05:54.730Z,10.18
2018-12-02T12:06:54.720Z,10.2
2018-12-02T12:07:54.710Z,10.18
2018-12-02T12:08:54.747Z,10.2
2018-12-02T12:09:54.687Z,10.14
2018-12-02T12:10:54.676Z,10.09
2018-12-02T12:11:54.667Z,10.11
2018-12-02T12:12:54.661Z,10.09
2018-12-02T12:13:54.651Z,10.2
2018-12-02T12:14:54.646Z,10.22
2018-12-02T12:15:54.630Z,10.17
2018-12-02T12:16:54.621Z,10.12
2018-12-02T12:17:54.610Z,10.2
2018-12-02T12:18:54.601Z,10.09
2018-12-02T12:19:54.597Z,10.09
2018-12-02T12:20:54.583Z,10.05
2018-12-02T12:21:54.573Z,10.11
2018-12-02T12:22:54.577Z,10.07
2018-12-02T12:23:54.551Z,10.02
2018-12-02T12:24:54.547Z,9.96
2018-12-02T12:25:54.540Z,10.09
2018-12-02T12:26:54.525Z,10.09
2018-12-02T12:27:54.518Z,10.15
2018-12-02T12:28:54.502Z,10.08
2018-12-02T12:29:54.496Z,10.09
2018-12-02T12:30:54.488Z,10.08
2018-12-02T12:31:54.477Z,10.09
2018-12-02T12:32:54.470Z,10.04
2018-12-02T12:33:54.456Z,9.99
2018-12-02T12:34:54.443Z,9.99
2018-12-02T12:35:54.440Z,9.87
2018-12-02T12:36:54.429Z,10.01
2018-12-02T12:37:54.419Z,9.9
2018-12-02T12:38:54.410Z,9.86
2018-12-02T12:39:54.398Z,9.9
2018-12-02T12:40:54.386Z,9.86
2018-12-02T12:41:54.382Z,9.89
2018-12-02T12:42:54.369Z,9.87
2018-12-02T12:43:54.362Z,9.79
2018-12-02T12:44:54.347Z,9.87
2018-12-02T12:45:54.338Z,9.84
2018-12-02T12:46:54.330Z,9.9
2018-12-02T12:47:54.318Z,9.83
2018-12-02T12:48:54.321Z,9.81
2018-12-02T12:49:54.298Z,9.75
2018-12-02T12:50:54.295Z,9.79
2018-12-02T12:51:54.278Z,9.78
2018-12-02T12:52:54.265Z,9.68
2018-12-02T12:53:54.257Z,9.72
2018-12-02T12:54:54.246Z,9.69
2018-12-02T12:55:55.836Z,9.69
2018-12-02T12:56:54.229Z,9.69
2018-12-02T12:57:54.220Z,9.61
2018-12-02T12:58:54.212Z,9.6
2018-12-02T12:59:54.200Z,9.53
2018-12-02T13:00:54.194Z,9.53
2018-12-02T13:01:54.177Z,9.53
2018-12-02T13:02:54.167Z,9.4
2018-12-02T13:03:54.163Z,9.47
2018-12-02T13:04:54.147Z,9.5
2018-12-02T13:05:54.139Z,9.47
2018-12-02T13:06:54.127Z,9.42
2018-12-02T13:07:53.879Z,9.46
2018-12-02T13:08:54.109Z,9.4
2018-12-02T13:09:54.095Z,9.38
2018-12-02T13:10:54.095Z,9.4
2018-12-02T13:11:54.076Z,9.36
2018-12-02T13:12:54.063Z,9.32
2018-12-02T13:13:54.060Z,9.36
2018-12-02T13:14:54.044Z,9.35
2018-12-02T13:15:54.032Z,9.28
2018-12-02T13:16:54.032Z,9.24
2018-12-02T13:17:54.017Z,9.23
2018-12-02T13:18:54.013Z,9.33